Time;durP1;ratioP1;P1;durP2;ratioP2;P2;SDS_P1;SDS_P2;PMS_P1;PMS_P2;Temp;Humidity;BMP_temperature;BMP_pressure;BME280_temperature;BME280_humidity;BME280_pressure;Samples;Min_cycle;Max_cycle;Signal;HPM_P1;HPM_P2
2022/08/05 00:02:06;;;;;;;5.53;4.47;;;19.70;99.90;;;;;;5095223;28;20115;-74
2022/08/05 00:04:32;;;;;;;3.80;3.33;;;19.70;99.90;;;;;;5095058;28;20024;-76
2022/08/05 00:06:58;;;;;;;4.70;4.18;;;19.70;99.90;;;;;;5095042;28;20024;-74
2022/08/05 00:09:23;;;;;;;4.22;3.83;;;19.60;99.90;;;;;;5095262;28;20104;-74
2022/08/05 00:11:49;;;;;;;4.35;3.15;;;19.60;99.90;;;;;;5095118;28;20020;-75
2022/08/05 00:14:15;;;;;;;2.92;2.63;;;19.60;99.90;;;;;;5095097;28;20036;-74
2022/08/05 00:16:41;;;;;;;3.65;3.00;;;19.50;99.90;;;;;;5094707;28;20073;-74
2022/08/05 00:19:06;;;;;;;2.78;2.58;;;19.50;99.90;;;;;;5094849;28;20438;-76
2022/08/05 00:21:32;;;;;;;2.67;2.25;;;19.40;99.90;;;;;;5095099;28;20056;-76
2022/08/05 00:23:59;;;;;;;5.72;3.00;;;19.50;99.90;;;;;;5094904;28;20020;-75
2022/08/05 00:26:25;;;;;;;2.38;2.17;;;19.50;99.90;;;;;;5094628;28;20032;-75
2022/08/05 00:28:50;;;;;;;2.95;2.75;;;19.40;99.90;;;;;;5094687;28;20119;-76
2022/08/05 00:31:16;;;;;;;2.72;2.53;;;19.40;99.90;;;;;;5094614;28;20590;-77
2022/08/05 00:33:42;;;;;;;2.83;2.60;;;19.30;99.90;;;;;;5093846;28;20028;-75
2022/08/05 00:36:08;;;;;;;3.60;2.97;;;19.30;99.90;;;;;;5094308;28;20039;-74
2022/08/05 00:38:33;;;;;;;3.22;2.92;;;19.30;99.90;;;;;;5094597;28;20032;-74
2022/08/05 00:40:59;;;;;;;2.72;2.33;;;19.30;99.90;;;;;;5094588;28;20024;-74
2022/08/05 00:43:25;;;;;;;3.15;2.85;;;19.30;99.90;;;;;;5094289;28;20367;-74
2022/08/05 00:45:51;;;;;;;3.60;3.13;;;19.30;99.90;;;;;;5094180;28;20517;-74
2022/08/05 00:48:19;;;;;;;4.13;3.38;;;19.30;99.90;;;;;;5094244;28;20539;-74
2022/08/05 00:50:47;;;;;;;3.88;3.05;;;19.20;99.90;;;;;;5094499;28;20099;-75
2022/08/05 00:53:16;;;;;;;3.85;3.33;;;19.20;99.90;;;;;;5094072;28;20032;-74
2022/08/05 00:55:43;;;;;;;7.50;3.42;;;19.10;99.90;;;;;;5094184;28;20115;-77
2022/08/05 00:58:09;;;;;;;4.88;3.47;;;19.10;99.90;;;;;;5094155;28;20486;-76
2022/08/05 01:00:35;;;;;;;3.80;3.22;;;19.10;99.90;;;;;;5094163;28;20020;-74
2022/08/05 01:03:01;;;;;;;4.40;3.55;;;19.10;99.90;;;;;;5094127;28;20383;-74
2022/08/05 01:05:27;;;;;;;6.43;3.40;;;19.00;99.90;;;;;;5094081;28;20073;-76
2022/08/05 01:07:52;;;;;;;3.63;3.25;;;19.10;99.90;;;;;;5093820;28;20020;-74
2022/08/05 01:10:23;;;;;;;5.80;3.78;;;19.10;99.90;;;;;;5093772;28;20039;-74
2022/08/05 01:12:57;;;;;;;3.83;3.53;;;19.10;99.90;;;;;;5093736;28;20015;-74
2022/08/05 01:15:33;;;;;;;4.50;3.60;;;19.10;99.90;;;;;;5093614;28;20348;-74
2022/08/05 01:18:24;;;;;;;4.50;3.25;;;19.00;99.90;;;;;;5093585;28;20024;-74
2022/08/05 01:20:56;;;;;;;5.25;4.65;;;19.00;99.90;;;;;;5093630;28;20533;-74
2022/08/05 01:23:27;;;;;;;4.85;3.40;;;19.00;99.90;;;;;;5093181;28;20087;-73
2022/08/05 01:26:11;;;;;;;6.28;4.28;;;18.90;99.90;;;;;;5077443;28;20107;-74
2022/08/05 01:28:50;;;;;;;5.93;4.40;;;18.90;99.90;;;;;;5097176;28;20020;-74
2022/08/05 01:31:33;;;;;;;5.22;4.72;;;18.90;99.90;;;;;;5078878;28;20119;-74
2022/08/05 01:34:21;;;;;;;4.97;4.35;;;18.90;99.90;;;;;;5094084;28;20024;-76
2022/08/05 01:36:52;;;;;;;6.47;5.35;;;18.80;99.90;;;;;;5093875;28;20027;-75
2022/08/05 01:39:19;;;;;;;6.38;4.53;;;18.70;99.90;;;;;;5093809;28;20481;-74
2022/08/05 01:41:47;;;;;;;8.02;4.38;;;18.70;99.90;;;;;;5093457;28;20367;-74
2022/08/05 01:44:15;;;;;;;5.65;4.65;;;18.70;99.90;;;;;;5092940;28;20017;-73
2022/08/05 01:46:42;;;;;;;4.32;3.60;;;18.60;99.90;;;;;;5093025;28;20070;-74
2022/08/05 01:49:11;;;;;;;4.07;3.67;;;18.60;99.90;;;;;;5093094;28;20107;-75
2022/08/05 01:51:39;;;;;;;8.88;4.00;;;18.60;99.90;;;;;;5093227;28;20118;-74
2022/08/05 01:54:08;;;;;;;4.25;3.85;;;18.60;99.90;;;;;;5092675;28;20021;-74
2022/08/05 01:56:38;;;;;;;4.85;4.45;;;18.60;99.90;;;;;;5074303;28;20356;-74
2022/08/05 01:59:08;;;;;;;5.47;4.13;;;18.60;99.90;;;;;;5092753;28;20359;-75
2022/08/05 02:01:35;;;;;;;4.22;3.83;;;18.60;99.90;;;;;;5092825;28;20413;-74
2022/08/05 02:04:02;;;;;;;3.50;3.15;;;18.60;99.90;;;;;;5092901;28;20016;-74
2022/08/05 02:06:28;;;;;;;4.97;4.57;;;18.50;99.90;;;;;;5092978;28;20034;-75
2022/08/05 02:08:54;;;;;;;5.68;5.13;;;18.40;99.90;;;;;;5092935;28;20434;-76
2022/08/05 02:11:21;;;;;;;6.95;4.53;;;18.40;99.90;;;;;;5092920;28;20043;-74
2022/08/05 02:13:54;;;;;;;6.22;4.45;;;18.40;99.90;;;;;;5092654;28;20375;-75
2022/08/05 02:16:33;;;;;;;4.90;3.75;;;18.40;99.90;;;;;;5092521;28;20047;-75
2022/08/05 02:19:05;;;;;;;4.32;3.45;;;18.30;99.90;;;;;;5092325;28;21074;-75
2022/08/05 02:21:35;;;;;;;4.75;4.10;;;18.30;99.90;;;;;;5092444;28;20485;-76
2022/08/05 02:24:06;;;;;;;4.07;3.67;;;18.30;99.90;;;;;;5092622;28;20012;-75
2022/08/05 02:26:42;;;;;;;5.57;3.40;;;18.20;99.90;;;;;;5092364;28;20073;-75
2022/08/05 02:29:11;;;;;;;6.60;4.05;;;18.20;99.90;;;;;;5092587;28;20019;-75
2022/08/05 02:31:37;;;;;;;4.97;3.83;;;18.20;99.90;;;;;;5092756;28;20063;-75
2022/08/05 02:34:07;;;;;;;4.70;4.30;;;18.20;99.90;;;;;;5092200;28;20016;-75
2022/08/05 02:36:35;;;;;;;4.90;4.20;;;18.20;99.90;;;;;;5091709;28;20020;-75
2022/08/05 02:39:03;;;;;;;4.45;3.88;;;18.10;99.90;;;;;;5092333;28;20020;-75
2022/08/05 02:41:31;;;;;;;5.03;4.00;;;18.10;99.90;;;;;;5092640;28;20030;-75
2022/08/05 02:43:58;;;;;;;4.80;4.30;;;18.10;99.90;;;;;;5092422;28;20332;-76
2022/08/05 02:46:24;;;;;;;4.88;4.22;;;18.10;99.90;;;;;;5074137;28;20102;-75
2022/08/05 02:48:51;;;;;;;5.65;4.43;;;18.20;99.90;;;;;;5092422;28;20030;-76
2022/08/05 02:51:17;;;;;;;6.10;3.72;;;18.10;99.90;;;;;;5092050;28;20048;-75
2022/08/05 02:53:44;;;;;;;5.32;4.50;;;18.10;99.90;;;;;;5092152;28;20028;-75
2022/08/05 02:56:11;;;;;;;7.07;5.93;;;18.10;99.90;;;;;;5073574;28;20036;-75
2022/08/05 02:58:40;;;;;;;10.32;4.93;;;18.10;99.90;;;;;;5092201;28;20024;-75
2022/08/05 03:01:09;;;;;;;5.07;4.53;;;18.10;99.90;;;;;;5092182;28;20031;-76
2022/08/05 03:03:40;;;;;;;4.93;4.43;;;18.10;99.90;;;;;;5091934;28;20020;-74
2022/08/05 03:06:09;;;;;;;5.10;3.80;;;18.10;99.90;;;;;;5092141;28;20051;-74
2022/08/05 03:08:36;;;;;;;10.77;3.30;;;18.10;99.90;;;;;;5091985;28;20020;-74
2022/08/05 03:11:01;;;;;;;3.33;2.97;;;18.10;99.90;;;;;;5092350;28;20130;-75
2022/08/05 03:13:27;;;;;;;7.07;3.72;;;18.20;99.90;;;;;;5092090;28;20104;-75
2022/08/05 03:15:53;;;;;;;10.52;8.00;;;18.20;99.90;;;;;;5091950;28;20089;-75
2022/08/05 03:18:18;;;;;;;31.95;19.83;;;18.20;99.90;;;;;;5092114;28;20044;-76
2022/08/05 03:20:44;;;;;;;37.67;22.98;;;18.20;99.90;;;;;;5091858;28;20028;-74
2022/08/05 03:23:11;;;;;;;21.27;15.38;;;18.10;99.90;;;;;;5091919;28;20104;-74
2022/08/05 03:25:38;;;;;;;10.40;7.38;;;18.10;99.90;;;;;;5091831;28;20034;-74
2022/08/05 03:28:08;;;;;;;7.15;5.05;;;18.00;99.90;;;;;;5091687;28;20024;-77
2022/08/05 03:30:34;;;;;;;9.88;4.97;;;18.00;99.90;;;;;;5074052;28;20039;-75
2022/08/05 03:33:01;;;;;;;8.05;5.97;;;18.00;99.90;;;;;;5092095;28;20022;-75
2022/08/05 03:35:27;;;;;;;9.57;6.93;;;18.00;99.90;;;;;;5091605;28;20174;-74
2022/08/05 03:37:56;;;;;;;11.55;6.85;;;17.90;99.90;;;;;;5091921;28;20505;-74
2022/08/05 03:40:22;;;;;;;7.43;6.10;;;17.90;99.90;;;;;;5091917;28;20032;-75
2022/08/05 03:42:48;;;;;;;7.15;5.60;;;17.90;99.90;;;;;;5091780;28;20024;-75
2022/08/05 03:45:14;;;;;;;5.30;4.13;;;17.90;99.90;;;;;;5092177;28;20024;-74
2022/08/05 03:47:39;;;;;;;4.03;3.60;;;17.90;99.90;;;;;;5076635;28;20107;-74
2022/08/05 03:50:06;;;;;;;4.75;4.10;;;17.90;99.90;;;;;;5095689;28;20099;-73
2022/08/05 03:52:36;;;;;;;9.43;3.63;;;17.90;99.90;;;;;;5095549;28;20031;-74
2022/08/05 03:55:08;;;;;;;3.35;3.08;;;17.90;99.90;;;;;;5095491;28;20491;-76
2022/08/05 03:57:37;;;;;;;2.78;2.58;;;17.90;99.90;;;;;;5095354;28;20027;-75
2022/08/05 04:00:08;;;;;;;3.50;3.20;;;18.00;99.90;;;;;;5095158;28;20020;-75
2022/08/05 04:02:36;;;;;;;3.40;3.10;;;18.00;99.90;;;;;;5094557;28;20074;-74
2022/08/05 04:05:04;;;;;;;6.82;3.30;;;18.00;99.90;;;;;;5095215;28;20502;-76
2022/08/05 04:07:30;;;;;;;3.55;3.25;;;18.00;99.90;;;;;;5094855;28;20040;-74
2022/08/05 04:09:57;;;;;;;3.42;3.13;;;18.00;99.90;;;;;;5094753;28;20612;-75
2022/08/05 04:12:23;;;;;;;4.00;3.10;;;18.00;99.90;;;;;;5094784;28;20115;-77
2022/08/05 04:14:49;;;;;;;8.23;4.72;;;17.90;99.90;;;;;;5094993;28;20103;-76
2022/08/05 04:17:15;;;;;;;10.38;7.47;;;18.60;99.90;;;;;;5094918;28;20036;-77
2022/08/05 04:19:43;;;;;;;9.85;6.57;;;;;;;;;;5094548;28;20395;-76
2022/08/05 04:22:08;;;;;;;6.30;4.65;;;19.80;99.90;;;;;;5095110;28;20057;-78
2022/08/05 04:24:34;;;;;;;8.02;5.78;;;20.10;99.90;;;;;;5096407;28;20028;-79
2022/08/05 04:27:00;;;;;;;10.35;7.70;;;20.20;99.90;;;;;;5098484;28;20005;-79
2022/08/05 04:29:25;;;;;;;9.25;5.65;;;20.50;99.90;;;;;;5076368;28;20119;-77
2022/08/05 04:31:51;;;;;;;8.40;4.90;;;20.70;99.90;;;;;;5076699;28;20016;-80
2022/08/05 04:34:16;;;;;;;5.43;4.72;;;20.80;99.90;;;;;;5076551;28;20035;-79
2022/08/05 04:36:42;;;;;;;5.55;4.55;;;20.90;99.90;;;;;;5076470;28;20118;-79
2022/08/05 04:39:08;;;;;;;11.35;7.35;;;21.00;99.90;;;;;;5076704;28;20052;-78
2022/08/05 04:41:34;;;;;;;13.40;9.00;;;21.00;99.90;;;;;;5076389;28;20024;-80
2022/08/05 04:43:59;;;;;;;13.70;9.02;;;21.10;99.90;;;;;;5076529;28;20459;-78
2022/08/05 04:46:25;;;;;;;10.05;7.40;;;21.20;99.90;;;;;;5076518;28;20024;-79
2022/08/05 04:48:50;;;;;;;11.38;6.68;;;21.10;99.90;;;;;;5076349;28;20032;-77
2022/08/05 04:51:16;;;;;;;7.93;6.28;;;21.10;99.90;;;;;;5094702;28;20073;-78
2022/08/05 04:53:42;;;;;;;7.43;4.72;;;21.00;99.90;;;;;;5094749;28;20100;-77
2022/08/05 04:56:08;;;;;;;3.75;3.45;;;21.00;99.90;;;;;;5079818;28;20061;-77
2022/08/05 04:58:34;;;;;;;3.60;3.30;;;20.90;99.90;;;;;;5076651;28;20028;-79
2022/08/05 05:01:00;;;;;;;3.83;3.15;;;20.90;99.90;;;;;;5077456;28;20048;-76
2022/08/05 05:03:25;;;;;;;3.22;2.90;;;20.90;99.90;;;;;;5076891;28;20487;-77
2022/08/05 05:05:51;;;;;;;2.72;2.53;;;21.00;99.90;;;;;;5076951;28;20050;-77
2022/08/05 05:08:16;;;;;;;3.15;2.90;;;21.00;99.90;;;;;;5076329;28;20375;-78
2022/08/05 05:10:44;;;;;;;3.63;3.03;;;20.90;99.90;;;;;;5094623;28;20028;-77
2022/08/05 05:13:12;;;;;;;5.28;2.72;;;20.70;99.90;;;;;;5076719;28;20047;-79
2022/08/05 05:15:38;;;;;;;3.22;2.92;;;20.60;99.90;;;;;;5093795;28;20119;-78
2022/08/05 05:18:04;;;;;;;3.85;3.35;;;20.70;99.90;;;;;;5075807;28;20032;-78
2022/08/05 05:20:31;;;;;;;18.02;13.23;;;20.80;99.90;;;;;;5094159;28;20040;-78
2022/08/05 05:22:58;;;;;;;20.10;12.73;;;21.00;99.90;;;;;;5075916;28;20020;-78
2022/08/05 05:25:24;;;;;;;17.02;13.15;;;21.10;99.90;;;;;;5093998;28;20035;-78
2022/08/05 05:27:54;;;;;;;20.58;15.88;;;21.20;99.90;;;;;;5093867;28;20069;-78
2022/08/05 05:30:21;;;;;;;12.88;8.40;;;21.30;99.90;;;;;;5075682;28;20028;-78
2022/08/05 05:32:46;;;;;;;9.05;7.35;;;21.50;99.90;;;;;;5075849;28;20467;-79
2022/08/05 05:35:13;;;;;;;7.72;6.18;;;21.60;99.90;;;;;;5075046;28;20080;-77
2022/08/05 05:37:52;;;;;;;7.32;4.38;;;21.80;99.90;;;;;;5093682;28;20059;-78
2022/08/05 05:40:20;;;;;;;3.42;3.13;;;21.80;99.90;;;;;;5093168;28;20059;-77
2022/08/05 05:42:46;;;;;;;3.47;3.17;;;21.90;99.90;;;;;;5075910;28;20081;-76
2022/08/05 05:45:12;;;;;;;4.88;3.53;;;21.80;99.90;;;;;;5093889;28;20043;-79
2022/08/05 05:47:39;;;;;;;7.10;5.10;;;21.90;99.90;;;;;;5075314;28;20036;-78
2022/08/05 05:50:10;;;;;;;7.20;4.80;;;21.90;99.90;;;;;;5075254;28;20084;-78
2022/08/05 05:52:36;;;;;;;7.05;4.13;;;21.90;99.90;;;;;;5093443;28;20103;-78
2022/08/05 05:55:04;;;;;;;3.85;3.45;;;21.90;99.90;;;;;;5093217;28;20031;-75
2022/08/05 05:57:29;;;;;;;2.85;2.63;;;22.10;99.90;;;;;;5075001;28;20043;-78
2022/08/05 05:59:55;;;;;;;3.72;3.38;;;22.20;99.90;;;;;;5075885;28;20028;-78
2022/08/05 06:02:21;;;;;;;3.33;3.08;;;22.40;99.90;;;;;;5075561;28;20024;-76
2022/08/05 06:04:46;;;;;;;3.67;3.38;;;22.60;99.90;;;;;;5093567;28;20066;-77
2022/08/05 06:07:12;;;;;;;4.20;3.80;;;22.70;99.90;;;;;;5075659;28;20024;-78
2022/08/05 06:09:38;;;;;;;5.30;3.53;;;22.80;99.90;;;;;;5075839;28;20110;-76
2022/08/05 06:12:05;;;;;;;3.90;3.00;;;22.90;99.90;;;;;;5093703;28;20046;-76
2022/08/05 06:14:31;;;;;;;3.53;3.20;;;;;;;;;;5075340;28;20038;-78
2022/08/05 06:16:57;;;;;;;2.83;2.50;;;23.10;99.90;;;;;;5092817;28;20032;-80
2022/08/05 06:19:23;;;;;;;2.88;2.67;;;23.30;99.90;;;;;;5074981;28;20052;-73
2022/08/05 06:21:48;;;;;;;5.60;2.90;;;23.30;99.90;;;;;;5075043;28;20031;-75
2022/08/05 06:24:14;;;;;;;3.15;2.88;;;23.30;99.90;;;;;;5092618;28;20031;-81
2022/08/05 06:26:40;;;;;;;4.57;2.63;;;23.40;99.90;;;;;;5074865;28;20040;-79
2022/08/05 06:29:06;;;;;;;2.63;2.42;;;23.50;99.90;;;;;;5093339;28;20044;-79
2022/08/05 06:31:32;;;;;;;2.55;2.35;;;23.60;99.90;;;;;;5075023;28;20446;-79
2022/08/05 06:33:57;;;;;;;4.85;2.20;;;23.80;98.20;;;;;;5075104;28;20344;-80
2022/08/05 06:36:23;;;;;;;3.15;2.85;;;23.90;97.30;;;;;;5074002;28;20055;-80
2022/08/05 06:38:52;;;;;;;2.38;2.17;;;24.00;97.00;;;;;;5074403;28;20027;-80
2022/08/05 06:41:18;;;;;;;3.35;2.65;;;24.10;97.00;;;;;;5092223;28;20119;-77
2022/08/05 06:43:44;;;;;;;3.00;2.70;;;24.20;97.80;;;;;;5074166;28;20038;-81
2022/08/05 06:46:09;;;;;;;3.60;2.28;;;24.30;96.80;;;;;;5074119;28;20024;-78
2022/08/05 06:48:35;;;;;;;2.65;2.45;;;24.50;96.30;;;;;;5092402;28;20149;-80
2022/08/05 06:51:02;;;;;;;2.50;2.30;;;24.70;96.00;;;;;;5092039;28;20035;-80
2022/08/05 06:53:28;;;;;;;2.45;2.25;;;24.90;95.30;;;;;;5092415;28;20038;-80
2022/08/05 06:55:58;;;;;;;3.35;2.33;;;25.10;94.60;;;;;;5074211;28;20031;-78
2022/08/05 06:58:24;;;;;;;3.97;2.38;;;25.30;94.20;;;;;;5092232;28;20066;-78
2022/08/05 07:00:50;;;;;;;7.40;2.92;;;25.60;94.60;;;;;;5091969;28;20020;-78
2022/08/05 07:03:16;;;;;;;2.75;2.40;;;25.80;94.20;;;;;;5092290;28;20020;-80
2022/08/05 07:05:41;;;;;;;2.92;2.63;;;25.90;93.80;;;;;;5092253;28;20016;-77
2022/08/05 07:08:07;;;;;;;3.42;3.00;;;26.10;94.90;;;;;;5092288;28;20067;-78
2022/08/05 07:10:33;;;;;;;2.40;2.30;;;26.30;94.00;;;;;;5092289;28;20032;-79
2022/08/05 07:18:26;;;;;;;4.28;2.47;;;26.50;93.50;;;;;;5092721;28;20540;-79
2022/08/05 07:20:52;;;;;;;2.38;2.25;;;26.80;94.10;;;;;;5092673;28;20020;-77
2022/08/05 07:23:18;;;;;;;3.50;3.05;;;27.00;94.00;;;;;;5101539;28;20024;-77
2022/08/05 07:25:44;;;;;;;3.22;2.92;;;27.10;92.50;;;;;;5082432;28;20040;-76
2022/08/05 07:28:09;;;;;;;3.97;2.50;;;27.20;92.50;;;;;;5099739;28;20106;-80
2022/08/05 07:30:37;;;;;;;5.07;2.67;;;27.20;92.20;;;;;;5100158;28;20034;-79
2022/08/05 07:33:04;;;;;;;3.90;2.58;;;27.40;92.90;;;;;;5080342;28;20043;-78
2022/08/05 07:35:30;;;;;;;3.25;2.63;;;27.50;92.30;;;;;;5096101;28;20491;-78
2022/08/05 07:37:56;;;;;;;3.00;2.70;;;27.60;92.30;;;;;;5095857;28;20082;-79
2022/08/05 07:40:22;;;;;;;4.15;2.60;;;27.70;91.60;;;;;;5077723;28;20501;-78
2022/08/05 07:42:48;;;;;;;4.30;2.90;;;27.90;90.90;;;;;;5096180;28;20077;-79
2022/08/05 07:45:14;;;;;;;2.70;2.50;;;28.10;91.40;;;;;;5099264;28;20440;-80
2022/08/05 07:47:40;;;;;;;2.72;2.53;;;28.20;90.80;;;;;;5080570;28;20472;-79
2022/08/05 07:50:07;;;;;;;3.95;2.25;;;28.40;91.30;;;;;;5098493;28;20085;-78
2022/08/05 07:52:38;;;;;;;3.40;2.15;;;28.50;90.00;;;;;;5095414;28;20103;-79
2022/08/05 07:55:04;;;;;;;2.35;2.20;;;28.60;90.30;;;;;;5076969;28;20039;-78
2022/08/05 07:57:30;;;;;;;4.13;2.85;;;28.80;90.00;;;;;;5077074;28;20031;-79
2022/08/05 07:59:56;;;;;;;2.67;2.22;;;29.00;90.20;;;;;;5095140;28;20028;-78
2022/08/05 08:02:26;;;;;;;6.53;2.33;;;29.10;90.00;;;;;;5095195;28;20020;-78
2022/08/05 08:04:52;;;;;;;3.15;2.40;;;29.30;90.10;;;;;;5095070;28;20043;-79
2022/08/05 08:07:19;;;;;;;3.35;2.50;;;29.30;89.40;;;;;;5076794;28;20120;-79
2022/08/05 08:09:45;;;;;;;3.22;2.35;;;29.50;89.00;;;;;;5076432;28;20030;-79
2022/08/05 08:12:12;;;;;;;2.80;2.60;;;29.70;89.70;;;;;;5076788;28;20111;-79
2022/08/05 08:14:38;;;;;;;2.28;2.03;;;29.80;90.00;;;;;;5094905;28;20025;-79
2022/08/05 08:17:09;;;;;;;3.50;2.47;;;29.80;89.50;;;;;;5094803;28;20016;-80
2022/08/05 08:19:35;;;;;;;2.30;2.10;;;29.90;87.70;;;;;;5094648;28;20040;-79
2022/08/05 08:22:01;;;;;;;2.53;2.40;;;30.00;86.80;;;;;;5095026;28;20044;-80
2022/08/05 08:24:26;;;;;;;4.30;2.42;;;30.20;85.20;;;;;;5095169;28;20024;-79
2022/08/05 08:26:52;;;;;;;4.38;2.63;;;30.30;84.10;;;;;;5094832;28;20389;-80
2022/08/05 08:29:18;;;;;;;4.88;2.30;;;30.30;86.50;;;;;;5095192;28;20451;-80
2022/08/05 08:31:43;;;;;;;5.53;1.80;;;30.40;83.00;;;;;;5094874;28;20028;-80
2022/08/05 08:34:09;;;;;;;3.20;2.10;;;30.40;83.90;;;;;;5093549;28;20050;-78
2022/08/05 08:36:34;;;;;;;1.88;1.77;;;30.50;82.00;;;;;;5095158;28;20031;-80
2022/08/05 08:39:00;;;;;;;2.20;1.73;;;30.60;81.40;;;;;;5094594;28;20047;-80
2022/08/05 08:41:29;;;;;;;2.65;2.17;;;30.60;79.90;;;;;;5094568;28;20031;-79
2022/08/05 08:43:56;;;;;;;1.50;1.42;;;30.60;78.60;;;;;;5094852;28;20024;-79
2022/08/05 08:46:26;;;;;;;3.63;1.60;;;30.70;79.80;;;;;;5094610;28;20032;-81
2022/08/05 08:48:53;;;;;;;2.25;1.70;;;30.80;78.80;;;;;;5076554;28;20020;-80
2022/08/05 08:51:20;;;;;;;4.05;2.17;;;30.80;78.20;;;;;;5094444;28;20027;-79
2022/08/05 08:53:46;;;;;;;1.98;1.52;;;30.90;78.00;;;;;;5094059;28;20095;-80
2022/08/05 08:56:12;;;;;;;2.90;1.83;;;31.00;78.40;;;;;;5094257;28;20059;-80
2022/08/05 08:58:39;;;;;;;1.65;1.55;;;31.00;78.80;;;;;;5094367;28;20047;-80
2022/08/05 09:01:06;;;;;;;1.95;1.80;;;31.00;77.00;;;;;;5094321;28;20059;-80
2022/08/05 09:03:32;;;;;;;3.30;1.58;;;31.00;76.70;;;;;;5094557;28;20020;-79
2022/08/05 09:05:58;;;;;;;1.73;1.63;;;31.10;77.30;;;;;;5094237;28;20028;-80
2022/08/05 09:08:24;;;;;;;1.92;1.80;;;31.10;77.60;;;;;;5094116;28;20020;-80
2022/08/05 09:10:50;;;;;;;2.38;1.60;;;31.20;75.40;;;;;;5094254;28;20031;-80
2022/08/05 09:13:18;;;;;;;1.95;1.52;;;31.30;75.00;;;;;;5093512;28;20348;-80
2022/08/05 09:15:44;;;;;;;1.90;1.50;;;31.20;75.50;;;;;;5075524;28;20043;-78
2022/08/05 09:18:10;;;;;;;1.40;1.30;;;31.30;74.40;;;;;;5075509;28;20028;-78
2022/08/05 09:20:36;;;;;;;1.75;1.52;;;31.30;76.10;;;;;;5094114;28;20111;-79
2022/08/05 09:23:16;;;;;;;1.40;1.30;;;31.30;73.20;;;;;;5093904;28;20032;-79
2022/08/05 09:25:44;;;;;;;1.42;1.33;;;31.40;74.50;;;;;;5093331;28;20028;-80
2022/08/05 09:28:11;;;;;;;1.23;1.20;;;31.40;72.30;;;;;;5093292;28;20471;-78
2022/08/05 09:30:36;;;;;;;2.38;1.60;;;31.40;71.60;;;;;;5093574;28;20081;-78
2022/08/05 09:33:03;;;;;;;1.48;1.40;;;31.40;71.20;;;;;;5075147;28;20020;-80
2022/08/05 09:35:29;;;;;;;1.45;1.40;;;31.50;70.60;;;;;;5093682;28;20347;-79
2022/08/05 09:37:55;;;;;;;1.50;1.40;;;31.50;70.00;;;;;;5093429;28;20026;-80
2022/08/05 09:40:41;;;;;;;3.55;1.50;;;31.50;72.10;;;;;;5093014;28;20162;-77
2022/08/05 09:43:09;;;;;;;1.90;1.40;;;31.50;71.30;;;;;;5093433;28;20562;-77
2022/08/05 09:45:41;;;;;;;3.05;1.30;;;31.60;70.60;;;;;;5092763;28;20023;-80
2022/08/05 09:48:24;;;;;;;2.20;1.50;;;31.60;70.40;;;;;;5092813;28;20050;-79
2022/08/05 09:50:55;;;;;;;1.40;1.27;;;31.60;70.80;;;;;;5093533;28;20036;-76
2022/08/05 09:53:22;;;;;;;1.25;1.20;;;31.60;70.20;;;;;;5092811;28;20027;-81
2022/08/05 09:56:06;;;;;;;3.85;1.83;;;31.70;72.50;;;;;;5093158;28;20043;-79
2022/08/05 09:58:31;;;;;;;2.30;1.40;;;31.80;71.30;;;;;;5092724;28;20016;-78
2022/08/05 10:01:05;;;;;;;1.60;1.50;;;31.80;71.00;;;;;;5093328;28;20030;-80
2022/08/05 10:03:31;;;;;;;1.45;1.35;;;31.90;70.20;;;;;;5093382;28;20032;-80
2022/08/05 10:06:03;;;;;;;3.72;1.67;;;31.90;70.10;;;;;;5093518;28;20872;-80
2022/08/05 10:08:29;;;;;;;1.50;1.40;;;32.00;69.30;;;;;;5093192;28;20032;-80
2022/08/05 10:10:55;;;;;;;1.65;1.55;;;32.00;69.60;;;;;;5074844;28;20421;-80
2022/08/05 10:13:37;;;;;;;3.03;1.70;;;32.00;68.30;;;;;;5092999;28;20032;-79
2022/08/05 10:16:05;;;;;;;1.10;1.10;;;32.10;69.40;;;;;;5074701;28;20040;-79
2022/08/05 10:18:32;;;;;;;3.10;1.23;;;32.10;68.00;;;;;;5074951;28;20040;-80
2022/08/05 10:21:04;;;;;;;1.75;1.10;;;32.30;66.90;;;;;;5074727;28;20036;-80
2022/08/05 10:23:35;;;;;;;1.67;1.10;;;32.50;67.00;;;;;;5093043;28;20016;-79
2022/08/05 10:26:05;;;;;;;1.58;1.48;;;32.50;66.70;;;;;;5092999;28;20111;-79
2022/08/05 10:28:31;;;;;;;1.52;1.42;;;32.60;67.60;;;;;;5092945;28;20103;-77
2022/08/05 10:30:58;;;;;;;1.55;1.45;;;32.60;66.60;;;;;;5092728;28;20423;-80
2022/08/05 10:33:27;;;;;;;0.90;0.90;;;32.70;66.20;;;;;;5092817;28;20028;-79
2022/08/05 10:35:54;;;;;;;2.55;1.27;;;32.60;66.20;;;;;;5092854;28;20062;-80
2022/08/05 10:38:22;;;;;;;1.10;1.10;;;32.70;65.90;;;;;;5092746;28;20569;-79
2022/08/05 10:40:50;;;;;;;1.20;1.10;;;32.80;65.80;;;;;;5092677;28;20111;-76
2022/08/05 10:43:27;;;;;;;1.58;1.40;;;32.90;65.20;;;;;;5092729;28;20020;-80
2022/08/05 10:46:01;;;;;;;4.03;1.05;;;33.00;66.40;;;;;;5074396;28;20034;-78
2022/08/05 10:48:28;;;;;;;;;;;33.00;66.50;;;;;;5093052;28;20332;-80
2022/08/05 10:51:03;;;;;;;1.45;1.35;;;33.00;66.00;;;;;;5092659;28;20351;-80
2022/08/05 10:53:39;;;;;;;1.13;1.13;;;33.00;65.60;;;;;;5092366;28;20020;-79
2022/08/05 10:56:16;;;;;;;0.93;0.93;;;33.00;65.00;;;;;;5092666;28;20063;-80
2022/08/05 10:58:56;;;;;;;2.08;0.95;;;33.00;64.50;;;;;;5078295;28;20024;-80
2022/08/05 11:01:37;;;;;;;1.20;1.20;;;33.00;65.30;;;;;;5096348;28;20455;-80
2022/08/05 11:04:15;;;;;;;1.38;1.38;;;33.00;65.10;;;;;;5078379;28;20028;-77
2022/08/05 11:06:56;;;;;;;1.35;1.25;;;33.20;65.40;;;;;;5096432;28;20031;-78
2022/08/05 11:09:24;;;;;;;0.90;0.90;;;33.20;63.40;;;;;;5096641;28;20023;-79
2022/08/05 11:11:52;;;;;;;1.60;1.10;;;33.30;64.20;;;;;;5096385;28;20124;-78
2022/08/05 11:14:36;;;;;;;3.85;1.77;;;33.20;62.70;;;;;;5078185;28;20024;-78
2022/08/05 11:17:26;;;;;;;1.13;1.10;;;33.20;63.50;;;;;;5077954;28;20043;-78
2022/08/05 11:19:54;;;;;;;1.67;1.00;;;33.20;64.80;;;;;;5096121;28;20140;-77
2022/08/05 11:22:41;;;;;;;4.00;1.10;;;33.30;63.90;;;;;;5079996;28;20051;-80
2022/08/05 11:25:30;;;;;;;1.58;1.20;;;33.50;64.50;;;;;;5078397;28;20479;-76
2022/08/05 11:28:11;;;;;;;1.15;1.13;;;33.50;64.60;;;;;;5078363;28;20016;-76
2022/08/05 11:31:04;;;;;;;1.13;1.02;;;33.50;63.60;;;;;;5078188;28;20023;-77
2022/08/05 11:33:36;;;;;;;1.13;1.13;;;33.60;65.00;;;;;;5096428;28;20028;-77
2022/08/05 11:36:03;;;;;;;2.03;1.23;;;33.50;62.90;;;;;;5077770;28;20039;-78
2022/08/05 11:38:38;;;;;;;1.40;1.30;;;33.60;63.60;;;;;;5095857;28;20021;-80
2022/08/05 11:41:06;;;;;;;1.33;1.20;;;33.50;63.50;;;;;;5095842;28;20020;-80
2022/08/05 11:43:33;;;;;;;1.20;1.10;;;33.40;63.30;;;;;;5095671;28;20020;-81
2022/08/05 11:46:00;;;;;;;1.50;1.23;;;33.40;63.20;;;;;;5095578;28;20081;-78
2022/08/05 11:48:27;;;;;;;1.30;1.20;;;33.30;64.40;;;;;;5095517;28;20069;-79
2022/08/05 11:50:53;;;;;;;3.08;1.50;;;33.30;66.10;;;;;;5095630;28;20139;-80
2022/08/05 11:53:20;;;;;;;1.30;1.23;;;33.50;65.50;;;;;;5095466;28;20012;-79
2022/08/05 11:55:58;;;;;;;1.50;1.20;;;33.60;64.60;;;;;;5095309;28;20036;-81
2022/08/05 11:58:39;;;;;;;1.15;1.00;;;33.60;64.80;;;;;;5076932;28;20020;-79
2022/08/05 12:01:05;;;;;;;1.27;1.23;;;33.70;64.00;;;;;;5095047;28;20028;-81
2022/08/05 12:03:44;;;;;;;2.78;0.98;;;33.70;64.30;;;;;;5095069;28;20024;-80
2022/08/05 12:06:12;;;;;;;1.08;1.08;;;33.70;61.60;;;;;;5095167;28;20020;-81
2022/08/05 12:08:44;;;;;;;2.85;1.23;;;33.60;62.90;;;;;;5094904;28;20032;-80
2022/08/05 12:11:16;;;;;;;1.08;1.08;;;33.60;63.80;;;;;;5095235;28;20023;-80
2022/08/05 12:14:02;;;;;;;1.15;1.05;;;33.70;65.20;;;;;;5094959;28;20031;-80
2022/08/05 12:16:32;;;;;;;1.30;1.20;;;33.70;63.90;;;;;;5095116;28;20032;-80
2022/08/05 12:18:58;;;;;;;1.25;1.25;;;33.90;64.00;;;;;;5094838;28;20097;-79
2022/08/05 12:21:25;;;;;;;1.10;1.10;;;33.90;63.80;;;;;;5094879;28;20008;-81
2022/08/05 12:23:52;;;;;;;1.40;1.25;;;33.90;64.50;;;;;;5094781;28;20046;-79
2022/08/05 12:26:18;;;;;;;1.98;1.48;;;33.90;64.90;;;;;;5093979;28;20023;-80
2022/08/05 12:28:44;;;;;;;1.80;1.70;;;34.00;63.40;;;;;;5094038;28;20020;-80
2022/08/05 12:31:09;;;;;;;2.38;1.08;;;34.10;62.90;;;;;;5093939;28;20032;-80
2022/08/05 12:33:35;;;;;;;1.63;1.33;;;34.10;62.90;;;;;;5094029;28;20360;-79
2022/08/05 12:36:02;;;;;;;1.70;1.60;;;34.10;63.20;;;;;;5093990;28;20035;-80
2022/08/05 12:38:27;;;;;;;1.50;1.33;;;34.10;62.80;;;;;;5075640;28;20027;-80
2022/08/05 12:40:55;;;;;;;1.52;1.25;;;34.10;63.30;;;;;;5093755;28;20348;-80
2022/08/05 12:43:21;;;;;;;1.58;1.48;;;34.10;61.90;;;;;;5075730;28;20081;-79
2022/08/05 12:45:54;;;;;;;1.20;1.17;;;34.10;63.00;;;;;;5075688;28;20061;-79
2022/08/05 12:48:21;;;;;;;1.60;1.30;;;34.00;62.40;;;;;;5093787;28;20422;-80
2022/08/05 12:51:09;;;;;;;1.40;1.40;;;34.10;62.60;;;;;;5093917;28;20071;-79
2022/08/05 12:53:41;;;;;;;1.60;1.50;;;34.10;62.30;;;;;;5094176;28;20044;-78
2022/08/05 12:56:23;;;;;;;4.50;1.70;;;34.10;63.80;;;;;;5094256;28;20114;-79
2022/08/05 12:59:18;;;;;;;1.50;1.40;;;34.20;63.00;;;;;;5094609;28;20028;-80
2022/08/05 13:01:53;;;;;;;3.15;1.60;;;34.40;64.00;;;;;;5094010;28;20055;-79